createdAt,value
2023-11-15T00:01:07.718Z,91.07
2023-11-15T00:03:37.341Z,90.63
2023-11-15T00:06:10.457Z,90.28
2023-11-15T00:08:40.334Z,90.51
2023-11-15T00:11:10.166Z,90.80
2023-11-15T00:13:39.895Z,90.57
2023-11-15T00:16:11.399Z,89.75
2023-11-15T00:18:41.444Z,90.17
2023-11-15T00:21:13.711Z,88.77
2023-11-15T00:23:43.566Z,88.77
2023-11-15T00:26:13.258Z,88.24
2023-11-15T00:28:51.542Z,88.77
2023-11-15T00:31:21.212Z,88.79
2023-11-15T00:33:51.115Z,88.71
2023-11-15T00:36:23.456Z,89.43
2023-11-15T00:38:53.565Z,89.92
2023-11-15T00:41:23.276Z,89.43
2023-11-15T00:43:52.921Z,89.79
2023-11-15T00:46:22.522Z,89.12
2023-11-15T00:48:52.178Z,89.14
2023-11-15T00:51:24.434Z,87.89
2023-11-15T00:53:54.090Z,88.10
2023-11-15T00:56:23.731Z,87.56
2023-11-15T00:58:55.332Z,87.64
2023-11-15T01:01:26.658Z,87.53
2023-11-15T01:03:59.937Z,87.27
2023-11-15T01:06:32.273Z,86.69
2023-11-15T01:09:04.431Z,87.11
2023-11-15T01:11:34.103Z,87.13
2023-11-15T01:14:04.418Z,87.16
2023-11-15T01:16:34.152Z,86.82
2023-11-15T01:19:04.230Z,86.27
2023-11-15T01:21:36.584Z,86.47
2023-11-15T01:24:07.134Z,87.00
2023-11-15T01:26:36.943Z,86.83
2023-11-15T01:29:06.724Z,87.19
2023-11-15T01:31:36.441Z,86.80
2023-11-15T01:34:07.356Z,87.26
2023-11-15T01:36:39.673Z,87.88
2023-11-15T01:39:17.444Z,89.66
2023-11-15T01:41:50.051Z,89.68
2023-11-15T01:44:20.371Z,89.41
2023-11-15T01:46:52.049Z,88.98
2023-11-15T01:49:25.013Z,89.34
2023-11-15T01:51:58.295Z,90.28
2023-11-15T01:54:28.317Z,90.27
2023-11-15T01:56:58.004Z,90.34
2023-11-15T01:59:27.753Z,90.09
2023-11-15T02:01:57.718Z,89.69
2023-11-15T02:04:27.361Z,90.27
2023-11-15T02:06:59.609Z,90.27
2023-11-15T02:09:30.900Z,90.17
2023-11-15T02:12:00.822Z,89.15
2023-11-15T02:14:32.005Z,89.72
2023-11-15T02:17:01.865Z,88.70
2023-11-15T02:19:31.507Z,88.63
2023-11-15T02:22:04.729Z,88.53
2023-11-15T02:24:36.938Z,88.67
2023-11-15T02:27:07.208Z,88.92
2023-11-15T02:29:36.945Z,88.53
2023-11-15T02:32:07.181Z,87.76
2023-11-15T02:34:36.989Z,88.32
2023-11-15T02:37:06.948Z,87.61
2023-11-15T02:39:39.236Z,87.21
2023-11-15T02:42:09.210Z,87.43
2023-11-15T02:44:38.916Z,87.88
2023-11-15T02:47:08.811Z,87.58
2023-11-15T02:49:38.631Z,87.90
2023-11-15T02:52:09.265Z,87.84
2023-11-15T02:54:41.461Z,88.49
2023-11-15T02:57:12.218Z,88.24
2023-11-15T02:59:41.904Z,88.15
2023-11-15T03:02:11.702Z,87.75
2023-11-15T03:04:42.330Z,87.71
2023-11-15T03:07:12.030Z,87.62
2023-11-15T03:09:44.232Z,88.70
2023-11-15T03:12:13.960Z,88.00
2023-11-15T03:14:43.660Z,87.15
2023-11-15T03:17:18.358Z,86.99
2023-11-15T03:19:48.298Z,87.48
2023-11-15T03:22:18.882Z,86.58
2023-11-15T03:24:51.408Z,86.06
2023-11-15T03:27:21.596Z,85.63
2023-11-15T03:29:51.476Z,86.15
2023-11-15T03:32:21.274Z,86.19
2023-11-15T03:34:51.239Z,87.58
2023-11-15T03:37:20.907Z,85.71
2023-11-15T03:39:54.326Z,86.12
2023-11-15T03:42:24.656Z,86.32
2023-11-15T03:44:54.398Z,85.77
2023-11-15T03:47:24.396Z,85.44
2023-11-15T03:49:54.111Z,84.57
2023-11-15T03:52:23.799Z,85.11
2023-11-15T03:54:56.229Z,83.86
2023-11-15T03:57:26.044Z,82.72
2023-11-15T04:00:00.523Z,83.18
2023-11-15T04:02:31.028Z,82.59
2023-11-15T04:05:00.952Z,83.63
2023-11-15T04:07:30.792Z,84.31
2023-11-15T04:10:03.470Z,85.10
2023-11-15T04:12:33.004Z,85.24
2023-11-15T04:15:05.034Z,86.05
2023-11-15T04:17:34.992Z,86.17
2023-11-15T04:20:05.942Z,85.47
2023-11-15T04:22:35.605Z,86.24
2023-11-15T04:25:09.598Z,86.81
2023-11-15T04:27:39.315Z,86.27
2023-11-15T04:30:11.293Z,86.25
2023-11-15T04:32:41.143Z,85.16
2023-11-15T04:35:12.181Z,85.93
2023-11-15T04:37:42.096Z,87.51
2023-11-15T04:40:15.305Z,88.22
2023-11-15T04:42:44.873Z,87.91
2023-11-15T04:45:14.569Z,87.91
2023-11-15T04:47:44.370Z,87.17
2023-11-15T04:50:14.012Z,86.10
2023-11-15T04:52:44.339Z,86.78
2023-11-15T04:55:16.695Z,87.56
2023-11-15T04:57:46.811Z,88.72
2023-11-15T05:00:17.615Z,87.63
2023-11-15T05:02:47.394Z,88.50
2023-11-15T05:05:17.364Z,87.86
2023-11-15T05:07:47.183Z,88.75
2023-11-15T05:10:20.941Z,88.98
2023-11-15T05:12:50.668Z,89.37
2023-11-15T05:15:20.361Z,89.57
2023-11-15T05:17:50.230Z,88.85
2023-11-15T05:20:19.923Z,88.58
2023-11-15T05:22:49.594Z,87.89
2023-11-15T05:25:22.527Z,88.96
2023-11-15T05:27:52.629Z,88.67
2023-11-15T05:30:23.146Z,88.37
2023-11-15T05:32:52.826Z,87.24
2023-11-15T05:35:23.267Z,87.31
2023-11-15T05:37:53.052Z,88.42
2023-11-15T05:40:25.388Z,87.77
2023-11-15T05:42:54.985Z,87.91
2023-11-15T05:45:26.905Z,88.80
2023-11-15T05:47:56.573Z,89.04
2023-11-15T05:50:26.260Z,88.75
2023-11-15T05:52:56.439Z,89.03
2023-11-15T05:55:29.801Z,89.01
2023-11-15T05:57:59.491Z,89.19
2023-11-15T06:00:29.159Z,89.55
2023-11-15T06:02:58.870Z,89.04
2023-11-15T06:05:30.690Z,89.11
2023-11-15T06:08:03.433Z,88.67
2023-11-15T06:10:37.408Z,88.26
2023-11-15T06:13:07.956Z,88.57
2023-11-15T06:15:37.515Z,88.47
2023-11-15T06:18:08.120Z,87.93
2023-11-15T06:20:39.617Z,88.49
2023-11-15T06:23:10.151Z,88.78
2023-11-15T06:25:45.235Z,87.29
2023-11-15T06:28:15.218Z,87.50
2023-11-15T06:30:46.547Z,87.78
2023-11-15T06:33:17.222Z,87.03
2023-11-15T06:35:47.434Z,87.42
2023-11-15T06:38:17.593Z,87.28
2023-11-15T06:40:50.406Z,87.84
2023-11-15T06:43:20.197Z,87.54
2023-11-15T06:45:49.776Z,87.43
2023-11-15T06:48:20.304Z,87.16
2023-11-15T06:50:50.129Z,87.18
2023-11-15T06:53:19.711Z,87.88
2023-11-15T06:55:54.102Z,88.75
2023-11-15T06:58:23.686Z,88.57
2023-11-15T07:00:53.669Z,88.71
2023-11-15T07:03:23.720Z,87.96
2023-11-15T07:05:53.493Z,88.91
2023-11-15T07:08:23.403Z,88.54
2023-11-15T07:10:56.136Z,88.55
2023-11-15T07:13:25.740Z,88.66
2023-11-15T07:15:55.358Z,88.50
2023-11-15T07:18:28.189Z,88.59
2023-11-15T07:20:58.619Z,88.72
2023-11-15T07:23:28.237Z,89.16
2023-11-15T07:26:00.445Z,88.51
2023-11-15T07:28:30.875Z,88.51
2023-11-15T07:31:00.850Z,88.65
2023-11-15T07:33:32.210Z,88.99
2023-11-15T07:36:01.938Z,89.08
2023-11-15T07:38:32.293Z,88.70
2023-11-15T07:41:04.432Z,88.72
2023-11-15T07:43:33.998Z,89.96
2023-11-15T07:46:03.564Z,90.05
2023-11-15T07:48:33.257Z,89.70
2023-11-15T07:51:04.490Z,90.05
2023-11-15T07:53:34.155Z,90.02
2023-11-15T07:56:07.577Z,89.55
2023-11-15T07:58:37.251Z,90.36
2023-11-15T08:01:09.731Z,91.12
2023-11-15T08:03:40.390Z,90.96
2023-11-15T08:06:11.222Z,90.68
2023-11-15T08:08:41.135Z,91.22
2023-11-15T08:11:13.969Z,91.23
2023-11-15T08:13:43.444Z,91.50
2023-11-15T08:16:14.119Z,91.58
2023-11-15T08:18:43.850Z,92.34
2023-11-15T08:21:14.397Z,92.78
2023-11-15T08:23:44.774Z,92.83
2023-11-15T08:26:22.522Z,91.44
2023-11-15T08:28:52.232Z,91.44
2023-11-15T08:31:24.855Z,92.11
2023-11-15T08:33:54.860Z,91.38
2023-11-15T08:36:24.526Z,90.40
2023-11-15T08:38:54.150Z,89.66
2023-11-15T08:41:26.433Z,90.61
2023-11-15T08:43:56.060Z,90.44
2023-11-15T08:46:28.134Z,90.94
2023-11-15T08:48:57.832Z,90.91
2023-11-15T08:51:27.508Z,90.79
2023-11-15T08:53:58.723Z,91.30
2023-11-15T08:56:32.759Z,89.29
2023-11-15T08:59:04.060Z,88.08
2023-11-15T09:01:33.962Z,88.65
2023-11-15T09:04:03.780Z,88.52
2023-11-15T09:06:33.594Z,88.21
2023-11-15T09:09:05.531Z,88.33
2023-11-15T09:11:38.260Z,88.94
2023-11-15T09:14:09.467Z,87.81
2023-11-15T09:16:39.129Z,87.40
2023-11-15T09:19:11.762Z,87.07
2023-11-15T09:21:43.397Z,86.75
2023-11-15T09:24:13.374Z,86.61
2023-11-15T09:26:45.621Z,87.47
2023-11-15T09:29:15.466Z,86.41
2023-11-15T09:31:45.503Z,87.74
2023-11-15T09:34:15.414Z,87.94
2023-11-15T09:36:45.238Z,87.23
2023-11-15T09:39:17.823Z,87.86
2023-11-15T09:41:57.210Z,88.74
2023-11-15T09:44:27.816Z,88.11
2023-11-15T09:46:59.378Z,88.95
2023-11-15T09:49:31.017Z,88.74
2023-11-15T09:52:01.978Z,89.99
2023-11-15T09:54:35.042Z,90.42
2023-11-15T09:57:07.842Z,90.96
2023-11-15T09:59:37.986Z,91.53
2023-11-15T10:02:07.732Z,91.90
2023-11-15T10:04:37.358Z,92.72
2023-11-15T10:07:08.680Z,92.43
2023-11-15T10:09:41.053Z,92.36
2023-11-15T10:12:13.861Z,91.70
2023-11-15T10:14:55.308Z,91.29
2023-11-15T10:17:41.839Z,90.61
2023-11-15T10:20:23.935Z,89.79
2023-11-15T10:22:54.434Z,89.34
2023-11-15T10:25:27.031Z,89.73
2023-11-15T10:28:04.835Z,88.98
2023-11-15T10:30:35.173Z,88.64
2023-11-15T10:33:11.894Z,88.33
2023-11-15T10:35:42.414Z,86.79
2023-11-15T10:38:16.220Z,87.48
2023-11-15T10:40:48.103Z,85.89
2023-11-15T10:43:20.419Z,86.14
2023-11-15T10:45:51.668Z,86.22
2023-11-15T10:48:24.777Z,86.37
2023-11-15T10:50:59.494Z,86.93
2023-11-15T10:53:31.413Z,87.13
2023-11-15T10:56:04.559Z,87.26
2023-11-15T10:58:40.743Z,86.48
2023-11-15T11:01:13.794Z,86.41
2023-11-15T11:03:44.045Z,86.28
2023-11-15T11:06:23.964Z,85.63
2023-11-15T11:09:03.606Z,84.88
2023-11-15T11:11:42.040Z,84.95
2023-11-15T11:14:22.622Z,85.59
2023-11-15T11:16:52.585Z,85.94
2023-11-15T11:19:23.734Z,83.98
2023-11-15T11:22:13.523Z,83.66
2023-11-15T11:24:47.733Z,84.82
2023-11-15T11:27:35.070Z,83.75
2023-11-15T11:30:22.388Z,84.50
2023-11-15T11:32:52.511Z,84.63
2023-11-15T11:35:32.533Z,84.25
2023-11-15T11:38:05.343Z,86.18
2023-11-15T11:40:40.639Z,85.15
2023-11-15T11:43:23.608Z,84.36
2023-11-15T11:45:56.313Z,85.81
2023-11-15T11:48:28.018Z,85.10
2023-11-15T11:51:05.085Z,84.87
2023-11-15T11:53:39.507Z,84.46
2023-11-15T11:56:15.249Z,84.93
2023-11-15T11:58:46.138Z,83.97
2023-11-15T12:01:18.467Z,83.32
2023-11-15T12:04:02.767Z,84.02
2023-11-15T12:06:34.238Z,83.88
2023-11-15T12:09:03.947Z,83.64
2023-11-15T12:11:33.633Z,82.52
2023-11-15T12:14:05.412Z,82.66
2023-11-15T12:16:40.610Z,83.52
2023-11-15T12:19:13.949Z,85.02
2023-11-15T12:21:47.460Z,83.64
2023-11-15T12:24:23.869Z,83.55
2023-11-15T12:26:53.968Z,83.92
2023-11-15T12:29:25.879Z,85.79
2023-11-15T12:32:01.097Z,86.08
2023-11-15T12:34:31.472Z,86.99
2023-11-15T12:37:01.832Z,87.79
2023-11-15T12:39:39.400Z,88.60
2023-11-15T12:42:09.220Z,89.08
2023-11-15T12:44:47.258Z,90.08
2023-11-15T12:47:19.900Z,89.80
2023-11-15T12:49:49.700Z,89.35
2023-11-15T12:52:19.472Z,89.59
2023-11-15T12:54:59.124Z,90.55
2023-11-15T12:57:29.446Z,89.16
2023-11-15T12:59:59.119Z,88.65
2023-11-15T13:02:37.745Z,88.71
2023-11-15T13:05:10.267Z,87.98
2023-11-15T13:07:40.434Z,88.91
2023-11-15T13:10:11.991Z,89.18
2023-11-15T13:12:41.650Z,89.25
2023-11-15T13:15:19.007Z,89.85
2023-11-15T13:17:52.657Z,90.07
2023-11-15T13:20:22.406Z,89.31
2023-11-15T13:22:52.072Z,89.72
2023-11-15T13:25:21.699Z,89.22
2023-11-15T13:27:51.738Z,90.66
2023-11-15T13:30:21.578Z,90.71
2023-11-15T13:32:53.997Z,90.43
2023-11-15T13:35:23.728Z,90.04
2023-11-15T13:37:53.338Z,88.56
2023-11-15T13:40:22.981Z,88.45
2023-11-15T13:42:53.277Z,87.71
2023-11-15T13:45:24.347Z,86.86
2023-11-15T13:47:58.117Z,84.92
2023-11-15T13:50:27.901Z,84.20
2023-11-15T13:52:57.552Z,84.27
2023-11-15T13:55:29.327Z,83.99
2023-11-15T13:57:59.046Z,83.20
2023-11-15T14:00:34.776Z,84.26
2023-11-15T14:03:09.525Z,83.09
2023-11-15T14:05:42.639Z,82.42
2023-11-15T14:08:12.339Z,81.17
2023-11-15T14:10:43.820Z,82.26
2023-11-15T14:13:13.901Z,80.86
2023-11-15T14:15:45.732Z,79.33
2023-11-15T14:18:18.252Z,80.05
2023-11-15T14:20:49.390Z,79.34
2023-11-15T14:23:20.061Z,80.29
2023-11-15T14:25:49.646Z,80.64
2023-11-15T14:28:20.244Z,79.79
2023-11-15T14:30:49.969Z,78.96
2023-11-15T14:33:22.294Z,79.25
2023-11-15T14:35:52.057Z,78.45
2023-11-15T14:38:21.686Z,78.38
2023-11-15T14:40:51.335Z,79.22
2023-11-15T14:43:21.012Z,79.84
2023-11-15T14:45:51.558Z,78.95
2023-11-15T14:48:23.923Z,79.64
2023-11-15T14:50:53.810Z,81.07
2023-11-15T14:53:41.257Z,80.84
2023-11-15T14:56:11.450Z,80.33
2023-11-15T14:58:41.060Z,80.25
2023-11-15T15:01:10.715Z,80.26
2023-11-15T15:03:43.345Z,80.97
2023-11-15T15:06:13.924Z,82.15
2023-11-15T15:08:44.562Z,82.60
2023-11-15T15:11:14.330Z,82.74
2023-11-15T15:13:43.919Z,84.13
2023-11-15T15:16:14.808Z,84.58
2023-11-15T15:18:47.072Z,84.43
2023-11-15T15:21:16.678Z,83.34
2023-11-15T15:23:46.543Z,84.06
2023-11-15T15:26:19.620Z,83.22
2023-11-15T15:28:55.142Z,84.76
2023-11-15T15:31:24.938Z,84.56
2023-11-15T15:33:57.172Z,85.59
2023-11-15T15:36:26.810Z,84.89
2023-11-15T15:38:56.436Z,84.40
2023-11-15T15:41:28.649Z,84.53
2023-11-15T15:43:58.268Z,83.54
2023-11-15T15:46:27.932Z,85.24
2023-11-15T15:49:00.235Z,85.41
2023-11-15T15:51:30.020Z,85.91
2023-11-15T15:54:00.086Z,86.08
2023-11-15T15:56:30.832Z,85.60
2023-11-15T15:59:02.373Z,85.77
2023-11-15T16:01:32.605Z,86.45
2023-11-15T16:04:05.005Z,86.24
2023-11-15T16:06:36.026Z,85.12
2023-11-15T16:09:05.741Z,85.14
2023-11-15T16:11:35.357Z,85.87
2023-11-15T16:14:06.344Z,84.93
2023-11-15T16:16:35.977Z,84.87
2023-11-15T16:19:08.279Z,84.58
2023-11-15T16:21:37.926Z,85.53
2023-11-15T16:24:10.039Z,85.41
2023-11-15T16:26:40.270Z,85.30
2023-11-15T16:29:10.229Z,85.84
2023-11-15T16:31:39.813Z,86.59
2023-11-15T16:34:12.102Z,86.12
2023-11-15T16:36:42.038Z,87.65
2023-11-15T16:39:14.456Z,88.31
2023-11-15T16:41:52.039Z,89.44
2023-11-15T16:44:22.806Z,88.85
2023-11-15T16:46:53.370Z,88.35
2023-11-15T16:49:26.272Z,87.79
2023-11-15T16:51:56.971Z,87.52
2023-11-15T16:54:27.061Z,87.93
2023-11-15T16:56:59.117Z,88.55
2023-11-15T16:59:29.197Z,88.68
2023-11-15T17:01:59.223Z,88.86
2023-11-15T17:04:31.996Z,88.89
2023-11-15T17:07:01.494Z,89.39
2023-11-15T17:09:31.897Z,88.63
2023-11-15T17:12:01.624Z,89.88
2023-11-15T17:14:32.571Z,89.56
2023-11-15T17:17:03.546Z,89.77
2023-11-15T17:19:35.767Z,90.52
2023-11-15T17:22:06.365Z,90.23
2023-11-15T17:24:35.934Z,90.42
2023-11-15T17:27:05.585Z,90.37
2023-11-15T17:29:35.681Z,90.75
2023-11-15T17:32:06.277Z,90.17
2023-11-15T17:34:38.742Z,90.12
2023-11-15T17:37:08.442Z,90.89
2023-11-15T17:39:38.001Z,91.28
2023-11-15T17:42:08.745Z,90.32
2023-11-15T17:44:38.953Z,91.15
2023-11-15T17:47:08.756Z,91.09
2023-11-15T17:49:40.888Z,91.19
2023-11-15T17:52:11.369Z,91.05
2023-11-15T17:54:41.001Z,90.36
2023-11-15T17:57:10.584Z,89.30
2023-11-15T17:59:42.775Z,90.11
2023-11-15T18:02:13.460Z,89.52
2023-11-15T18:04:46.063Z,89.24
2023-11-15T18:07:15.754Z,88.71
2023-11-15T18:09:45.294Z,88.67
2023-11-15T18:12:14.992Z,88.85
2023-11-15T18:14:44.668Z,87.88
2023-11-15T18:17:15.010Z,87.85
2023-11-15T18:19:47.174Z,87.31
2023-11-15T18:22:16.748Z,87.44
2023-11-15T18:24:46.394Z,86.89
2023-11-15T18:27:16.168Z,87.26
2023-11-15T18:29:45.789Z,87.43
2023-11-15T18:32:15.576Z,86.97
2023-11-15T18:34:47.725Z,86.95
2023-11-15T18:37:17.322Z,86.94
2023-11-15T18:39:46.876Z,86.74
2023-11-15T18:42:16.858Z,86.65
2023-11-15T18:44:47.249Z,86.17
2023-11-15T18:47:17.248Z,86.26
2023-11-15T18:49:50.279Z,87.29
2023-11-15T18:52:21.548Z,86.54
2023-11-15T18:54:51.470Z,86.17
2023-11-15T18:57:23.259Z,86.51
2023-11-15T18:59:54.698Z,86.36
2023-11-15T19:02:26.144Z,85.92
2023-11-15T19:04:58.514Z,85.81
2023-11-15T19:07:28.133Z,86.07
2023-11-15T19:09:58.933Z,85.11
2023-11-15T19:12:28.650Z,85.77
2023-11-15T19:14:58.338Z,86.08
2023-11-15T19:17:28.064Z,85.79
2023-11-15T19:20:01.901Z,85.02
2023-11-15T19:22:31.523Z,85.11
2023-11-15T19:25:01.168Z,85.49
2023-11-15T19:27:30.792Z,85.43
2023-11-15T19:30:00.429Z,85.01
2023-11-15T19:32:30.602Z,84.78
2023-11-15T19:35:02.871Z,84.75
2023-11-15T19:37:33.731Z,84.73
2023-11-15T19:40:08.510Z,84.84
2023-11-15T19:42:38.164Z,84.94
2023-11-15T19:45:12.672Z,85.56
2023-11-15T19:47:44.032Z,84.23
2023-11-15T19:50:17.042Z,85.31
2023-11-15T19:52:46.909Z,84.12
2023-11-15T19:55:16.906Z,84.06
2023-11-15T19:57:46.598Z,83.58
2023-11-15T20:00:18.110Z,83.40
2023-11-15T20:02:48.369Z,83.53
2023-11-15T20:05:21.392Z,83.45
2023-11-15T20:07:51.074Z,84.04
2023-11-15T20:10:20.810Z,84.15
2023-11-15T20:12:50.457Z,83.10
2023-11-15T20:15:20.202Z,83.67
2023-11-15T20:17:49.866Z,82.76
2023-11-15T20:20:24.134Z,82.31
2023-11-15T20:22:55.760Z,82.80
2023-11-15T20:25:26.182Z,83.30
2023-11-15T20:27:55.770Z,82.81
2023-11-15T20:30:27.084Z,82.32
2023-11-15T20:32:57.509Z,82.47
2023-11-15T20:35:29.789Z,82.67
2023-11-15T20:37:59.895Z,82.51
2023-11-15T20:40:30.536Z,82.48
2023-11-15T20:43:01.585Z,81.68
2023-11-15T20:45:31.316Z,82.01
2023-11-15T20:48:01.421Z,81.66
2023-11-15T20:50:33.695Z,81.14
2023-11-15T20:53:05.018Z,81.51
2023-11-15T20:55:35.160Z,81.39
2023-11-15T20:58:07.861Z,82.06
2023-11-15T21:00:40.313Z,80.96
2023-11-15T21:03:11.273Z,81.07
2023-11-15T21:05:44.894Z,81.37
2023-11-15T21:08:14.625Z,80.81
2023-11-15T21:10:44.979Z,80.42
2023-11-15T21:13:15.848Z,80.32
2023-11-15T21:15:47.102Z,80.08
2023-11-15T21:18:17.275Z,80.47
2023-11-15T21:20:49.602Z,80.40
2023-11-15T21:23:19.720Z,80.34
2023-11-15T21:25:49.291Z,80.64
2023-11-15T21:28:18.930Z,81.30
2023-11-15T21:30:48.660Z,80.37
2023-11-15T21:33:18.400Z,79.78
2023-11-15T21:35:52.901Z,79.71
2023-11-15T21:38:22.934Z,80.67
2023-11-15T21:40:52.620Z,79.84
2023-11-15T21:43:23.952Z,80.13
2023-11-15T21:45:53.602Z,80.76
2023-11-15T21:48:24.099Z,80.74
2023-11-15T21:50:56.725Z,80.13
2023-11-15T21:53:26.407Z,80.21
2023-11-15T21:55:59.008Z,80.27
2023-11-15T21:58:28.722Z,79.92
2023-11-15T22:00:58.311Z,79.93
2023-11-15T22:03:28.368Z,79.18
2023-11-15T22:06:00.617Z,79.39
2023-11-15T22:08:33.167Z,79.27
2023-11-15T22:11:04.696Z,79.24
2023-11-15T22:13:34.394Z,79.27
2023-11-15T22:16:04.071Z,79.29
2023-11-15T22:18:33.860Z,79.28
2023-11-15T22:21:07.734Z,79.23
2023-11-15T22:23:37.428Z,78.88
2023-11-15T22:26:08.994Z,79.34
2023-11-15T22:28:38.609Z,78.75
2023-11-15T22:31:08.581Z,78.91
2023-11-15T22:33:38.206Z,78.50
2023-11-15T22:36:11.218Z,79.15
2023-11-15T22:38:41.042Z,78.74
2023-11-15T22:41:10.729Z,79.18
2023-11-15T22:43:40.611Z,80.06
2023-11-15T22:46:10.365Z,79.69
2023-11-15T22:48:40.171Z,78.35
2023-11-15T22:51:12.551Z,79.13
2023-11-15T22:53:42.521Z,78.72
2023-11-15T22:56:12.620Z,78.70
2023-11-15T22:58:42.279Z,78.37
2023-11-15T23:01:13.202Z,78.80
2023-11-15T23:03:43.380Z,79.18
2023-11-15T23:06:15.838Z,78.74
2023-11-15T23:08:45.721Z,79.14
2023-11-15T23:11:15.804Z,79.07
2023-11-15T23:13:46.877Z,79.52
2023-11-15T23:16:16.665Z,79.74
2023-11-15T23:18:46.334Z,79.42
2023-11-15T23:21:20.476Z,79.17
2023-11-15T23:23:50.117Z,79.23
2023-11-15T23:26:19.754Z,79.29
2023-11-15T23:28:49.394Z,79.46
2023-11-15T23:31:21.541Z,79.13
2023-11-15T23:33:51.286Z,78.97
2023-11-15T23:36:23.701Z,78.49
2023-11-15T23:38:53.867Z,78.31
2023-11-15T23:41:24.441Z,78.94
2023-11-15T23:43:56.281Z,79.21
2023-11-15T23:46:25.914Z,79.05
2023-11-15T23:48:56.930Z,78.34
2023-11-15T23:51:29.296Z,78.70
2023-11-15T23:53:58.941Z,78.36
2023-11-15T23:56:28.566Z,78.37
2023-11-15T23:58:58.694Z,78.11
